sensor_id;sensor_type;location;lat;lon;timestamp;P1;durP1;ratioP1;P2;durP2;ratioP2
59516;SDS011;45342;42.662;27.718;2022-08-21T00:01:54;20.42;;;14.43;;
59516;SDS011;45342;42.662;27.718;2022-08-21T00:04:20;21.23;;;13.93;;
59516;SDS011;45342;42.662;27.718;2022-08-21T00:06:46;19.45;;;13.50;;
59516;SDS011;45342;42.662;27.718;2022-08-21T00:09:11;19.52;;;13.48;;
59516;SDS011;45342;42.662;27.718;2022-08-21T00:11:37;21.17;;;14.13;;
59516;SDS011;45342;42.662;27.718;2022-08-21T00:14:04;19.90;;;14.00;;
59516;SDS011;45342;42.662;27.718;2022-08-21T00:16:31;19.20;;;14.23;;
59516;SDS011;45342;42.662;27.718;2022-08-21T00:18:57;17.92;;;13.73;;
59516;SDS011;45342;42.662;27.718;2022-08-21T00:21:23;20.27;;;13.90;;
59516;SDS011;45342;42.662;27.718;2022-08-21T00:23:50;22.65;;;14.02;;
59516;SDS011;45342;42.662;27.718;2022-08-21T00:26:16;18.38;;;13.15;;
59516;SDS011;45342;42.662;27.718;2022-08-21T00:28:41;18.42;;;13.43;;
59516;SDS011;45342;42.662;27.718;2022-08-21T00:31:08;17.05;;;12.95;;
59516;SDS011;45342;42.662;27.718;2022-08-21T00:33:33;21.02;;;13.63;;
59516;SDS011;45342;42.662;27.718;2022-08-21T00:35:59;18.20;;;13.00;;
59516;SDS011;45342;42.662;27.718;2022-08-21T00:38:25;17.30;;;13.10;;
59516;SDS011;45342;42.662;27.718;2022-08-21T00:40:53;18.63;;;13.52;;
59516;SDS011;45342;42.662;27.718;2022-08-21T00:43:23;20.92;;;13.18;;
59516;SDS011;45342;42.662;27.718;2022-08-21T00:45:52;20.50;;;13.55;;
59516;SDS011;45342;42.662;27.718;2022-08-21T00:48:18;20.15;;;13.48;;
59516;SDS011;45342;42.662;27.718;2022-08-21T00:50:58;16.85;;;12.60;;
59516;SDS011;45342;42.662;27.718;2022-08-21T00:53:27;16.45;;;13.02;;
59516;SDS011;45342;42.662;27.718;2022-08-21T00:55:53;22.58;;;13.32;;
59516;SDS011;45342;42.662;27.718;2022-08-21T00:58:19;19.35;;;12.88;;
59516;SDS011;45342;42.662;27.718;2022-08-21T01:00:46;16.55;;;12.68;;
59516;SDS011;45342;42.662;27.718;2022-08-21T01:03:14;16.88;;;12.05;;
59516;SDS011;45342;42.662;27.718;2022-08-21T01:05:42;18.73;;;12.93;;
59516;SDS011;45342;42.662;27.718;2022-08-21T01:08:09;15.98;;;12.77;;
59516;SDS011;45342;42.662;27.718;2022-08-21T01:10:36;16.90;;;12.57;;
59516;SDS011;45342;42.662;27.718;2022-08-21T01:13:03;16.50;;;12.15;;
59516;SDS011;45342;42.662;27.718;2022-08-21T01:15:33;17.58;;;11.93;;
59516;SDS011;45342;42.662;27.718;2022-08-21T01:18:00;16.92;;;13.07;;
59516;SDS011;45342;42.662;27.718;2022-08-21T01:20:28;17.17;;;12.55;;
59516;SDS011;45342;42.662;27.718;2022-08-21T01:22:54;17.30;;;11.70;;
59516;SDS011;45342;42.662;27.718;2022-08-21T01:25:20;17.13;;;12.38;;
59516;SDS011;45342;42.662;27.718;2022-08-21T01:27:46;16.98;;;12.82;;
59516;SDS011;45342;42.662;27.718;2022-08-21T01:30:20;17.55;;;12.60;;
59516;SDS011;45342;42.662;27.718;2022-08-21T01:32:49;15.02;;;12.05;;
59516;SDS011;45342;42.662;27.718;2022-08-21T01:35:16;16.98;;;12.57;;
59516;SDS011;45342;42.662;27.718;2022-08-21T01:37:43;15.38;;;11.90;;
59516;SDS011;45342;42.662;27.718;2022-08-21T01:40:09;15.38;;;11.68;;
59516;SDS011;45342;42.662;27.718;2022-08-21T01:42:36;16.30;;;12.40;;
59516;SDS011;45342;42.662;27.718;2022-08-21T01:45:03;14.13;;;11.10;;
59516;SDS011;45342;42.662;27.718;2022-08-21T01:47:29;16.05;;;12.68;;
59516;SDS011;45342;42.662;27.718;2022-08-21T01:49:55;15.23;;;11.00;;
59516;SDS011;45342;42.662;27.718;2022-08-21T01:54:46;15.15;;;11.88;;
59516;SDS011;45342;42.662;27.718;2022-08-21T01:59:38;14.75;;;11.38;;
59516;SDS011;45342;42.662;27.718;2022-08-21T02:02:04;14.43;;;11.57;;
59516;SDS011;45342;42.662;27.718;2022-08-21T02:04:30;15.73;;;12.45;;
59516;SDS011;45342;42.662;27.718;2022-08-21T02:06:56;14.13;;;11.30;;
59516;SDS011;45342;42.662;27.718;2022-08-21T02:09:21;14.85;;;11.60;;
59516;SDS011;45342;42.662;27.718;2022-08-21T02:11:47;14.68;;;11.80;;
59516;SDS011;45342;42.662;27.718;2022-08-21T02:14:14;16.27;;;11.20;;
59516;SDS011;45342;42.662;27.718;2022-08-21T02:16:41;14.55;;;11.32;;
59516;SDS011;45342;42.662;27.718;2022-08-21T02:19:08;13.48;;;11.35;;
59516;SDS011;45342;42.662;27.718;2022-08-21T02:21:34;15.48;;;11.32;;
59516;SDS011;45342;42.662;27.718;2022-08-21T02:24:00;14.27;;;11.38;;
59516;SDS011;45342;42.662;27.718;2022-08-21T02:26:25;15.40;;;11.75;;
59516;SDS011;45342;42.662;27.718;2022-08-21T02:28:51;13.88;;;10.93;;
59516;SDS011;45342;42.662;27.718;2022-08-21T02:31:17;17.80;;;11.98;;
59516;SDS011;45342;42.662;27.718;2022-08-21T02:33:43;13.02;;;10.75;;
59516;SDS011;45342;42.662;27.718;2022-08-21T02:38:35;13.90;;;10.95;;
59516;SDS011;45342;42.662;27.718;2022-08-21T02:41:04;15.05;;;11.18;;
59516;SDS011;45342;42.662;27.718;2022-08-21T02:43:35;14.90;;;11.13;;
59516;SDS011;45342;42.662;27.718;2022-08-21T02:46:01;14.82;;;11.45;;
59516;SDS011;45342;42.662;27.718;2022-08-21T02:48:29;13.05;;;10.95;;
59516;SDS011;45342;42.662;27.718;2022-08-21T02:50:57;12.98;;;10.98;;
59516;SDS011;45342;42.662;27.718;2022-08-21T02:53:29;14.20;;;11.10;;
59516;SDS011;45342;42.662;27.718;2022-08-21T02:55:56;14.20;;;11.02;;
59516;SDS011;45342;42.662;27.718;2022-08-21T02:58:26;14.65;;;10.88;;
59516;SDS011;45342;42.662;27.718;2022-08-21T03:00:56;14.30;;;11.02;;
59516;SDS011;45342;42.662;27.718;2022-08-21T03:03:23;13.10;;;10.88;;
59516;SDS011;45342;42.662;27.718;2022-08-21T03:05:49;14.55;;;10.70;;
59516;SDS011;45342;42.662;27.718;2022-08-21T03:08:16;13.15;;;10.85;;
59516;SDS011;45342;42.662;27.718;2022-08-21T03:10:46;14.55;;;11.20;;
59516;SDS011;45342;42.662;27.718;2022-08-21T03:13:14;13.30;;;10.93;;
59516;SDS011;45342;42.662;27.718;2022-08-21T03:15:40;15.38;;;10.95;;
59516;SDS011;45342;42.662;27.718;2022-08-21T03:18:08;13.23;;;10.55;;
59516;SDS011;45342;42.662;27.718;2022-08-21T03:20:35;13.00;;;10.20;;
59516;SDS011;45342;42.662;27.718;2022-08-21T03:23:02;13.07;;;10.75;;
59516;SDS011;45342;42.662;27.718;2022-08-21T03:25:28;12.20;;;10.82;;
59516;SDS011;45342;42.662;27.718;2022-08-21T03:27:57;13.38;;;10.95;;
59516;SDS011;45342;42.662;27.718;2022-08-21T03:30:23;13.55;;;10.70;;
59516;SDS011;45342;42.662;27.718;2022-08-21T03:35:15;13.15;;;10.27;;
59516;SDS011;45342;42.662;27.718;2022-08-21T03:37:41;13.18;;;11.02;;
59516;SDS011;45342;42.662;27.718;2022-08-21T03:40:07;12.38;;;10.65;;
59516;SDS011;45342;42.662;27.718;2022-08-21T03:42:34;12.27;;;10.18;;
59516;SDS011;45342;42.662;27.718;2022-08-21T03:45:00;13.20;;;10.88;;
59516;SDS011;45342;42.662;27.718;2022-08-21T03:49:51;11.45;;;10.25;;
59516;SDS011;45342;42.662;27.718;2022-08-21T03:52:17;11.82;;;10.52;;
59516;SDS011;45342;42.662;27.718;2022-08-21T03:54:43;11.93;;;9.95;;
59516;SDS011;45342;42.662;27.718;2022-08-21T03:57:10;12.02;;;10.40;;
59516;SDS011;45342;42.662;27.718;2022-08-21T04:02:02;11.98;;;10.27;;
59516;SDS011;45342;42.662;27.718;2022-08-21T04:04:29;14.02;;;10.52;;
59516;SDS011;45342;42.662;27.718;2022-08-21T04:06:56;13.20;;;10.18;;
59516;SDS011;45342;42.662;27.718;2022-08-21T04:09:22;10.88;;;9.75;;
59516;SDS011;45342;42.662;27.718;2022-08-21T04:11:49;11.27;;;9.73;;
59516;SDS011;45342;42.662;27.718;2022-08-21T04:14:15;14.35;;;10.35;;
59516;SDS011;45342;42.662;27.718;2022-08-21T04:16:42;11.45;;;9.77;;
59516;SDS011;45342;42.662;27.718;2022-08-21T04:19:08;14.10;;;10.50;;
59516;SDS011;45342;42.662;27.718;2022-08-21T04:21:37;11.57;;;9.73;;
59516;SDS011;45342;42.662;27.718;2022-08-21T04:24:04;11.65;;;10.20;;
59516;SDS011;45342;42.662;27.718;2022-08-21T04:26:32;12.30;;;10.27;;
59516;SDS011;45342;42.662;27.718;2022-08-21T04:28:59;12.38;;;10.35;;
59516;SDS011;45342;42.662;27.718;2022-08-21T04:31:26;13.90;;;9.93;;
59516;SDS011;45342;42.662;27.718;2022-08-21T04:33:53;10.80;;;9.65;;
59516;SDS011;45342;42.662;27.718;2022-08-21T04:36:19;11.30;;;9.77;;
59516;SDS011;45342;42.662;27.718;2022-08-21T04:41:11;13.35;;;10.05;;
59516;SDS011;45342;42.662;27.718;2022-08-21T04:43:37;11.82;;;10.20;;
59516;SDS011;45342;42.662;27.718;2022-08-21T04:46:04;12.25;;;9.82;;
59516;SDS011;45342;42.662;27.718;2022-08-21T04:48:30;12.85;;;9.93;;
59516;SDS011;45342;42.662;27.718;2022-08-21T04:56:07;12.40;;;10.05;;
59516;SDS011;45342;42.662;27.718;2022-08-21T04:58:35;11.27;;;9.88;;
59516;SDS011;45342;42.662;27.718;2022-08-21T05:01:03;12.57;;;10.02;;
59516;SDS011;45342;42.662;27.718;2022-08-21T05:03:30;12.77;;;9.88;;
59516;SDS011;45342;42.662;27.718;2022-08-21T05:05:56;11.05;;;9.73;;
59516;SDS011;45342;42.662;27.718;2022-08-21T05:10:48;11.32;;;9.43;;
59516;SDS011;45342;42.662;27.718;2022-08-21T05:13:14;12.10;;;9.93;;
59516;SDS011;45342;42.662;27.718;2022-08-21T05:15:40;12.35;;;10.13;;
59516;SDS011;45342;42.662;27.718;2022-08-21T05:18:06;12.73;;;10.00;;
59516;SDS011;45342;42.662;27.718;2022-08-21T05:22:59;12.18;;;9.27;;
59516;SDS011;45342;42.662;27.718;2022-08-21T05:25:25;13.32;;;10.02;;
59516;SDS011;45342;42.662;27.718;2022-08-21T05:30:17;12.18;;;9.95;;
59516;SDS011;45342;42.662;27.718;2022-08-21T05:35:08;10.43;;;9.32;;
59516;SDS011;45342;42.662;27.718;2022-08-21T05:37:33;11.18;;;9.13;;
59516;SDS011;45342;42.662;27.718;2022-08-21T05:42:26;11.43;;;9.40;;
59516;SDS011;45342;42.662;27.718;2022-08-21T05:44:53;10.50;;;9.43;;
59516;SDS011;45342;42.662;27.718;2022-08-21T05:49:44;10.63;;;9.23;;
59516;SDS011;45342;42.662;27.718;2022-08-21T05:52:09;11.27;;;9.50;;
59516;SDS011;45342;42.662;27.718;2022-08-21T05:54:36;10.93;;;9.60;;
59516;SDS011;45342;42.662;27.718;2022-08-21T05:57:02;10.70;;;9.52;;
59516;SDS011;45342;42.662;27.718;2022-08-21T06:01:54;11.02;;;9.68;;
59516;SDS011;45342;42.662;27.718;2022-08-21T06:04:20;10.45;;;9.40;;
59516;SDS011;45342;42.662;27.718;2022-08-21T06:06:48;10.13;;;9.13;;
59516;SDS011;45342;42.662;27.718;2022-08-21T06:09:14;9.52;;;8.63;;
59516;SDS011;45342;42.662;27.718;2022-08-21T06:14:05;10.20;;;8.98;;
59516;SDS011;45342;42.662;27.718;2022-08-21T06:16:31;9.95;;;8.95;;
59516;SDS011;45342;42.662;27.718;2022-08-21T06:21:23;11.00;;;9.82;;
59516;SDS011;45342;42.662;27.718;2022-08-21T06:23:49;9.95;;;8.95;;
59516;SDS011;45342;42.662;27.718;2022-08-21T06:26:15;10.25;;;9.25;;
59516;SDS011;45342;42.662;27.718;2022-08-21T06:31:26;10.10;;;9.00;;
59516;SDS011;45342;42.662;27.718;2022-08-21T06:33:53;9.88;;;8.88;;
59516;SDS011;45342;42.662;27.718;2022-08-21T06:36:19;10.60;;;9.10;;
59516;SDS011;45342;42.662;27.718;2022-08-21T06:38:46;9.65;;;8.55;;
59516;SDS011;45342;42.662;27.718;2022-08-21T06:43:37;11.30;;;9.20;;
59516;SDS011;45342;42.662;27.718;2022-08-21T06:46:03;10.27;;;9.23;;
59516;SDS011;45342;42.662;27.718;2022-08-21T06:48:28;9.82;;;8.75;;
59516;SDS011;45342;42.662;27.718;2022-08-21T06:50:58;9.52;;;8.52;;
59516;SDS011;45342;42.662;27.718;2022-08-21T06:53:24;10.07;;;8.95;;
59516;SDS011;45342;42.662;27.718;2022-08-21T06:55:50;9.38;;;8.13;;
59516;SDS011;45342;42.662;27.718;2022-08-21T07:00:43;9.30;;;8.20;;
59516;SDS011;45342;42.662;27.718;2022-08-21T07:03:44;10.02;;;8.38;;
59516;SDS011;45342;42.662;27.718;2022-08-21T07:06:04;9.38;;;8.48;;
59516;SDS011;45342;42.662;27.718;2022-08-21T07:08:31;9.45;;;8.20;;
59516;SDS011;45342;42.662;27.718;2022-08-21T07:10:58;9.07;;;8.18;;
59516;SDS011;45342;42.662;27.718;2022-08-21T07:13:24;9.65;;;8.10;;
59516;SDS011;45342;42.662;27.718;2022-08-21T07:15:51;8.90;;;8.00;;
59516;SDS011;45342;42.662;27.718;2022-08-21T07:18:16;8.38;;;7.57;;
59516;SDS011;45342;42.662;27.718;2022-08-21T07:20:42;8.77;;;7.70;;
59516;SDS011;45342;42.662;27.718;2022-08-21T07:23:10;9.20;;;8.30;;
59516;SDS011;45342;42.662;27.718;2022-08-21T07:25:38;8.77;;;7.88;;
59516;SDS011;45342;42.662;27.718;2022-08-21T07:28:04;8.95;;;8.05;;
59516;SDS011;45342;42.662;27.718;2022-08-21T07:30:30;8.68;;;7.80;;
59516;SDS011;45342;42.662;27.718;2022-08-21T07:32:55;8.95;;;8.05;;
59516;SDS011;45342;42.662;27.718;2022-08-21T07:35:21;9.15;;;8.13;;
59516;SDS011;45342;42.662;27.718;2022-08-21T07:37:48;8.77;;;7.93;;
59516;SDS011;45342;42.662;27.718;2022-08-21T07:40:14;9.40;;;8.05;;
59516;SDS011;45342;42.662;27.718;2022-08-21T07:42:44;9.07;;;8.18;;
59516;SDS011;45342;42.662;27.718;2022-08-21T07:45:12;9.57;;;8.48;;
59516;SDS011;45342;42.662;27.718;2022-08-21T07:47:38;8.93;;;7.88;;
59516;SDS011;45342;42.662;27.718;2022-08-21T07:50:04;9.52;;;7.82;;
59516;SDS011;45342;42.662;27.718;2022-08-21T07:52:31;8.73;;;7.82;;
59516;SDS011;45342;42.662;27.718;2022-08-21T07:54:57;9.15;;;7.90;;
59516;SDS011;45342;42.662;27.718;2022-08-21T07:59:49;8.80;;;7.90;;
59516;SDS011;45342;42.662;27.718;2022-08-21T08:02:24;9.63;;;7.88;;
59516;SDS011;45342;42.662;27.718;2022-08-21T08:04:50;9.18;;;8.25;;
59516;SDS011;45342;42.662;27.718;2022-08-21T08:07:16;9.25;;;8.35;;
59516;SDS011;45342;42.662;27.718;2022-08-21T08:09:43;8.77;;;7.88;;
59516;SDS011;45342;42.662;27.718;2022-08-21T08:12:09;9.15;;;8.20;;
59516;SDS011;45342;42.662;27.718;2022-08-21T08:14:36;9.30;;;8.40;;
59516;SDS011;45342;42.662;27.718;2022-08-21T08:17:01;17.15;;;10.25;;
59516;SDS011;45342;42.662;27.718;2022-08-21T08:19:27;13.25;;;10.93;;
59516;SDS011;45342;42.662;27.718;2022-08-21T08:21:53;11.32;;;9.75;;
59516;SDS011;45342;42.662;27.718;2022-08-21T08:24:19;12.25;;;10.32;;
59516;SDS011;45342;42.662;27.718;2022-08-21T08:26:46;11.82;;;9.75;;
59516;SDS011;45342;42.662;27.718;2022-08-21T08:29:12;10.57;;;9.48;;
59516;SDS011;45342;42.662;27.718;2022-08-21T08:31:38;12.32;;;10.10;;
59516;SDS011;45342;42.662;27.718;2022-08-21T08:36:33;10.32;;;9.20;;
59516;SDS011;45342;42.662;27.718;2022-08-21T08:39:00;10.85;;;9.10;;
59516;SDS011;45342;42.662;27.718;2022-08-21T08:41:26;10.88;;;9.75;;
59516;SDS011;45342;42.662;27.718;2022-08-21T08:43:53;10.65;;;9.02;;
59516;SDS011;45342;42.662;27.718;2022-08-21T08:46:24;10.50;;;9.40;;
59516;SDS011;45342;42.662;27.718;2022-08-21T08:48:58;12.38;;;9.48;;
59516;SDS011;45342;42.662;27.718;2022-08-21T08:54:15;10.38;;;9.25;;
59516;SDS011;45342;42.662;27.718;2022-08-21T08:56:44;13.02;;;9.52;;
59516;SDS011;45342;42.662;27.718;2022-08-21T09:01:52;15.15;;;11.23;;
59516;SDS011;45342;42.662;27.718;2022-08-21T09:04:22;15.43;;;10.88;;
59516;SDS011;45342;42.662;27.718;2022-08-21T09:06:58;13.63;;;10.88;;
59516;SDS011;45342;42.662;27.718;2022-08-21T09:09:45;13.50;;;10.63;;
59516;SDS011;45342;42.662;27.718;2022-08-21T09:12:38;13.70;;;10.52;;
59516;SDS011;45342;42.662;27.718;2022-08-21T09:15:14;13.57;;;10.55;;
59516;SDS011;45342;42.662;27.718;2022-08-21T09:26:07;11.55;;;10.10;;
59516;SDS011;45342;42.662;27.718;2022-08-21T09:28:38;11.10;;;9.80;;
59516;SDS011;45342;42.662;27.718;2022-08-21T09:31:07;13.85;;;10.48;;
59516;SDS011;45342;42.662;27.718;2022-08-21T09:33:36;12.98;;;10.43;;
59516;SDS011;45342;42.662;27.718;2022-08-21T09:36:03;12.55;;;10.35;;
59516;SDS011;45342;42.662;27.718;2022-08-21T09:38:34;13.35;;;10.50;;
59516;SDS011;45342;42.662;27.718;2022-08-21T09:41:08;14.57;;;10.43;;
59516;SDS011;45342;42.662;27.718;2022-08-21T09:43:35;15.32;;;10.05;;
59516;SDS011;45342;42.662;27.718;2022-08-21T09:46:20;11.70;;;10.13;;
59516;SDS011;45342;42.662;27.718;2022-08-21T09:48:48;12.70;;;10.10;;
59516;SDS011;45342;42.662;27.718;2022-08-21T09:51:23;14.05;;;10.63;;
59516;SDS011;45342;42.662;27.718;2022-08-21T10:01:46;13.60;;;10.07;;
59516;SDS011;45342;42.662;27.718;2022-08-21T10:04:19;12.75;;;10.70;;
59516;SDS011;45342;42.662;27.718;2022-08-21T10:06:46;11.95;;;9.23;;
59516;SDS011;45342;42.662;27.718;2022-08-21T10:09:13;11.57;;;9.50;;
59516;SDS011;45342;42.662;27.718;2022-08-21T10:11:42;11.32;;;9.55;;
59516;SDS011;45342;42.662;27.718;2022-08-21T10:14:43;12.93;;;9.82;;
59516;SDS011;45342;42.662;27.718;2022-08-21T10:33:39;11.07;;;9.60;;
59516;SDS011;45342;42.662;27.718;2022-08-21T10:36:12;13.25;;;9.65;;
59516;SDS011;45342;42.662;27.718;2022-08-21T10:44:31;10.65;;;9.55;;
59516;SDS011;45342;42.662;27.718;2022-08-21T10:49:38;11.48;;;9.48;;
59516;SDS011;45342;42.662;27.718;2022-08-21T10:52:33;11.70;;;9.82;;
59516;SDS011;45342;42.662;27.718;2022-08-21T10:55:11;11.48;;;9.85;;
59516;SDS011;45342;42.662;27.718;2022-08-21T11:00:08;10.45;;;9.35;;
59516;SDS011;45342;42.662;27.718;2022-08-21T11:05:25;13.35;;;9.23;;
59516;SDS011;45342;42.662;27.718;2022-08-21T11:08:14;12.30;;;9.23;;
59516;SDS011;45342;42.662;27.718;2022-08-21T11:11:04;10.93;;;9.57;;
59516;SDS011;45342;42.662;27.718;2022-08-21T11:13:40;10.98;;;9.20;;
59516;SDS011;45342;42.662;27.718;2022-08-21T11:18:57;10.10;;;9.10;;
59516;SDS011;45342;42.662;27.718;2022-08-21T11:29:11;10.80;;;9.23;;
59516;SDS011;45342;42.662;27.718;2022-08-21T11:31:57;10.88;;;9.20;;
59516;SDS011;45342;42.662;27.718;2022-08-21T11:37:14;12.80;;;9.10;;
59516;SDS011;45342;42.662;27.718;2022-08-21T11:50:22;10.88;;;9.23;;
59516;SDS011;45342;42.662;27.718;2022-08-21T11:52:53;10.20;;;9.10;;
59516;SDS011;45342;42.662;27.718;2022-08-21T11:55:39;10.60;;;9.23;;
59516;SDS011;45342;42.662;27.718;2022-08-21T11:58:18;11.77;;;8.95;;
59516;SDS011;45342;42.662;27.718;2022-08-21T12:00:52;12.57;;;9.32;;
59516;SDS011;45342;42.662;27.718;2022-08-21T12:03:25;10.07;;;8.98;;
59516;SDS011;45342;42.662;27.718;2022-08-21T12:05:54;11.00;;;9.10;;
59516;SDS011;45342;42.662;27.718;2022-08-21T12:16:28;12.02;;;9.70;;
59516;SDS011;45342;42.662;27.718;2022-08-21T12:19:03;10.00;;;9.00;;
59516;SDS011;45342;42.662;27.718;2022-08-21T12:21:30;10.57;;;9.18;;
59516;SDS011;45342;42.662;27.718;2022-08-21T12:26:56;10.55;;;9.45;;
59516;SDS011;45342;42.662;27.718;2022-08-21T12:29:29;10.77;;;8.93;;
59516;SDS011;45342;42.662;27.718;2022-08-21T12:31:58;10.95;;;9.73;;
59516;SDS011;45342;42.662;27.718;2022-08-21T12:34:34;11.30;;;8.93;;
59516;SDS011;45342;42.662;27.718;2022-08-21T12:37:04;10.55;;;9.43;;
59516;SDS011;45342;42.662;27.718;2022-08-21T12:39:46;9.82;;;8.82;;
59516;SDS011;45342;42.662;27.718;2022-08-21T12:44:45;11.38;;;9.20;;
59516;SDS011;45342;42.662;27.718;2022-08-21T12:47:15;11.02;;;9.20;;
59516;SDS011;45342;42.662;27.718;2022-08-21T12:52:24;10.27;;;9.27;;
59516;SDS011;45342;42.662;27.718;2022-08-21T12:54:58;12.48;;;9.35;;
59516;SDS011;45342;42.662;27.718;2022-08-21T12:57:24;11.40;;;9.05;;
59516;SDS011;45342;42.662;27.718;2022-08-21T13:00:04;10.75;;;9.05;;
59516;SDS011;45342;42.662;27.718;2022-08-21T13:02:35;10.88;;;9.30;;
59516;SDS011;45342;42.662;27.718;2022-08-21T13:05:05;11.63;;;9.23;;
59516;SDS011;45342;42.662;27.718;2022-08-21T13:07:33;10.23;;;8.73;;
59516;SDS011;45342;42.662;27.718;2022-08-21T13:10:02;10.35;;;9.30;;
59516;SDS011;45342;42.662;27.718;2022-08-21T13:12:30;9.95;;;8.95;;
59516;SDS011;45342;42.662;27.718;2022-08-21T13:14:57;10.50;;;8.98;;
59516;SDS011;45342;42.662;27.718;2022-08-21T13:17:25;11.95;;;9.52;;
59516;SDS011;45342;42.662;27.718;2022-08-21T13:19:56;9.57;;;8.65;;
59516;SDS011;45342;42.662;27.718;2022-08-21T13:22:26;10.07;;;9.07;;
59516;SDS011;45342;42.662;27.718;2022-08-21T13:24:52;10.32;;;9.18;;
59516;SDS011;45342;42.662;27.718;2022-08-21T13:27:22;10.43;;;9.32;;
59516;SDS011;45342;42.662;27.718;2022-08-21T13:30:00;10.18;;;9.18;;
59516;SDS011;45342;42.662;27.718;2022-08-21T13:32:47;11.95;;;9.82;;
59516;SDS011;45342;42.662;27.718;2022-08-21T13:35:31;11.77;;;10.07;;
59516;SDS011;45342;42.662;27.718;2022-08-21T13:38:01;11.50;;;9.80;;
59516;SDS011;45342;42.662;27.718;2022-08-21T13:40:30;11.27;;;10.18;;
59516;SDS011;45342;42.662;27.718;2022-08-21T13:42:58;10.73;;;9.32;;
59516;SDS011;45342;42.662;27.718;2022-08-21T13:45:26;10.30;;;8.93;;
59516;SDS011;45342;42.662;27.718;2022-08-21T13:47:56;11.60;;;9.57;;
59516;SDS011;45342;42.662;27.718;2022-08-21T13:50:23;10.93;;;9.82;;
59516;SDS011;45342;42.662;27.718;2022-08-21T13:52:57;12.02;;;9.82;;
59516;SDS011;45342;42.662;27.718;2022-08-21T13:55:23;10.70;;;9.50;;
59516;SDS011;45342;42.662;27.718;2022-08-21T13:57:58;10.40;;;9.40;;
59516;SDS011;45342;42.662;27.718;2022-08-21T14:00:26;11.35;;;9.82;;
59516;SDS011;45342;42.662;27.718;2022-08-21T14:03:00;10.52;;;9.15;;
59516;SDS011;45342;42.662;27.718;2022-08-21T14:05:29;11.38;;;10.07;;
59516;SDS011;45342;42.662;27.718;2022-08-21T14:08:02;10.43;;;9.38;;
59516;SDS011;45342;42.662;27.718;2022-08-21T14:10:43;11.88;;;10.68;;
59516;SDS011;45342;42.662;27.718;2022-08-21T14:13:45;11.18;;;10.00;;
59516;SDS011;45342;42.662;27.718;2022-08-21T14:16:11;10.40;;;9.32;;
59516;SDS011;45342;42.662;27.718;2022-08-21T14:18:43;11.48;;;10.27;;
59516;SDS011;45342;42.662;27.718;2022-08-21T14:21:23;12.52;;;10.00;;
59516;SDS011;45342;42.662;27.718;2022-08-21T14:24:10;13.45;;;10.30;;
59516;SDS011;45342;42.662;27.718;2022-08-21T14:26:56;13.52;;;9.52;;
59516;SDS011;45342;42.662;27.718;2022-08-21T14:29:27;11.50;;;9.82;;
59516;SDS011;45342;42.662;27.718;2022-08-21T14:31:58;11.07;;;9.98;;
59516;SDS011;45342;42.662;27.718;2022-08-21T14:34:25;11.00;;;9.85;;
59516;SDS011;45342;42.662;27.718;2022-08-21T14:36:52;13.48;;;10.20;;
59516;SDS011;45342;42.662;27.718;2022-08-21T14:39:23;16.35;;;13.48;;
59516;SDS011;45342;42.662;27.718;2022-08-21T14:41:49;19.85;;;13.82;;
59516;SDS011;45342;42.662;27.718;2022-08-21T14:44:16;19.65;;;13.68;;
59516;SDS011;45342;42.662;27.718;2022-08-21T14:46:42;17.83;;;14.55;;
59516;SDS011;45342;42.662;27.718;2022-08-21T14:49:08;18.00;;;14.15;;
59516;SDS011;45342;42.662;27.718;2022-08-21T14:51:34;23.02;;;14.50;;
59516;SDS011;45342;42.662;27.718;2022-08-21T14:54:00;20.15;;;13.90;;
59516;SDS011;45342;42.662;27.718;2022-08-21T14:56:26;23.15;;;13.88;;
59516;SDS011;45342;42.662;27.718;2022-08-21T14:58:51;17.15;;;13.63;;
59516;SDS011;45342;42.662;27.718;2022-08-21T15:01:18;19.48;;;13.35;;
59516;SDS011;45342;42.662;27.718;2022-08-21T15:03:46;19.33;;;12.63;;
59516;SDS011;45342;42.662;27.718;2022-08-21T15:06:13;20.05;;;12.05;;
59516;SDS011;45342;42.662;27.718;2022-08-21T15:08:40;20.17;;;12.57;;
59516;SDS011;45342;42.662;27.718;2022-08-21T15:11:06;17.65;;;12.55;;
59516;SDS011;45342;42.662;27.718;2022-08-21T15:13:34;20.50;;;13.18;;
59516;SDS011;45342;42.662;27.718;2022-08-21T15:16:01;25.60;;;13.00;;
59516;SDS011;45342;42.662;27.718;2022-08-21T15:18:28;22.88;;;12.82;;
59516;SDS011;45342;42.662;27.718;2022-08-21T15:20:54;22.98;;;13.48;;
59516;SDS011;45342;42.662;27.718;2022-08-21T15:23:20;26.70;;;13.10;;
59516;SDS011;45342;42.662;27.718;2022-08-21T15:25:46;18.42;;;12.40;;
59516;SDS011;45342;42.662;27.718;2022-08-21T15:28:13;18.38;;;12.10;;
59516;SDS011;45342;42.662;27.718;2022-08-21T15:30:40;18.05;;;11.90;;
59516;SDS011;45342;42.662;27.718;2022-08-21T15:33:07;19.83;;;12.82;;
59516;SDS011;45342;42.662;27.718;2022-08-21T15:35:33;22.52;;;11.98;;
59516;SDS011;45342;42.662;27.718;2022-08-21T15:37:59;20.80;;;12.98;;
59516;SDS011;45342;42.662;27.718;2022-08-21T15:40:25;18.95;;;12.52;;
59516;SDS011;45342;42.662;27.718;2022-08-21T15:42:52;22.00;;;12.70;;
59516;SDS011;45342;42.662;27.718;2022-08-21T15:45:25;20.40;;;13.27;;
59516;SDS011;45342;42.662;27.718;2022-08-21T15:47:51;21.10;;;13.07;;
59516;SDS011;45342;42.662;27.718;2022-08-21T15:50:17;16.85;;;11.80;;
59516;SDS011;45342;42.662;27.718;2022-08-21T15:52:43;19.50;;;12.48;;
59516;SDS011;45342;42.662;27.718;2022-08-21T15:55:10;17.17;;;12.35;;
59516;SDS011;45342;42.662;27.718;2022-08-21T15:57:37;18.17;;;12.05;;
59516;SDS011;45342;42.662;27.718;2022-08-21T16:00:10;17.15;;;12.55;;
59516;SDS011;45342;42.662;27.718;2022-08-21T16:02:40;17.13;;;12.00;;
59516;SDS011;45342;42.662;27.718;2022-08-21T16:05:09;26.92;;;13.30;;
59516;SDS011;45342;42.662;27.718;2022-08-21T16:07:37;25.33;;;13.02;;
59516;SDS011;45342;42.662;27.718;2022-08-21T16:10:04;17.58;;;12.85;;
59516;SDS011;45342;42.662;27.718;2022-08-21T16:12:31;19.42;;;12.63;;
59516;SDS011;45342;42.662;27.718;2022-08-21T16:14:59;17.83;;;12.35;;
59516;SDS011;45342;42.662;27.718;2022-08-21T16:17:30;18.73;;;13.00;;
59516;SDS011;45342;42.662;27.718;2022-08-21T16:19:57;19.33;;;12.70;;
59516;SDS011;45342;42.662;27.718;2022-08-21T16:22:25;16.45;;;11.93;;
59516;SDS011;45342;42.662;27.718;2022-08-21T16:24:59;17.10;;;12.27;;
59516;SDS011;45342;42.662;27.718;2022-08-21T16:27:25;18.98;;;12.52;;
59516;SDS011;45342;42.662;27.718;2022-08-21T16:29:51;17.70;;;12.95;;
59516;SDS011;45342;42.662;27.718;2022-08-21T16:32:16;20.65;;;12.90;;
59516;SDS011;45342;42.662;27.718;2022-08-21T16:34:45;17.98;;;12.30;;
59516;SDS011;45342;42.662;27.718;2022-08-21T16:37:12;17.17;;;11.77;;
59516;SDS011;45342;42.662;27.718;2022-08-21T16:39:38;16.92;;;12.77;;
59516;SDS011;45342;42.662;27.718;2022-08-21T16:42:04;16.20;;;12.23;;
59516;SDS011;45342;42.662;27.718;2022-08-21T16:44:31;16.08;;;11.85;;
59516;SDS011;45342;42.662;27.718;2022-08-21T16:46:58;18.52;;;12.38;;
59516;SDS011;45342;42.662;27.718;2022-08-21T16:49:24;18.23;;;12.57;;
59516;SDS011;45342;42.662;27.718;2022-08-21T16:51:50;18.13;;;12.35;;
59516;SDS011;45342;42.662;27.718;2022-08-21T16:54:15;18.45;;;12.20;;